sensor_id;sensor_type;location;lat;lon;timestamp;P1;durP1;ratioP1;P2;durP2;ratioP2
49296;SDS011;35163;48.878;18.040;2023-05-14T00:01:03;7.38;;;3.60;;
49296;SDS011;35163;48.878;18.040;2023-05-14T00:03:30;6.97;;;2.97;;
49296;SDS011;35163;48.878;18.040;2023-05-14T00:05:56;7.35;;;3.67;;
49296;SDS011;35163;48.878;18.040;2023-05-14T00:08:23;7.45;;;3.40;;
49296;SDS011;35163;48.878;18.040;2023-05-14T00:10:50;6.38;;;3.60;;
49296;SDS011;35163;48.878;18.040;2023-05-14T00:13:17;8.32;;;3.90;;
49296;SDS011;35163;48.878;18.040;2023-05-14T00:15:43;7.82;;;4.30;;
49296;SDS011;35163;48.878;18.040;2023-05-14T00:18:10;8.15;;;4.43;;
49296;SDS011;35163;48.878;18.040;2023-05-14T00:20:37;9.07;;;4.38;;
49296;SDS011;35163;48.878;18.040;2023-05-14T00:23:04;9.73;;;4.30;;
49296;SDS011;35163;48.878;18.040;2023-05-14T00:25:31;7.70;;;4.32;;
49296;SDS011;35163;48.878;18.040;2023-05-14T00:27:57;8.02;;;4.50;;
49296;SDS011;35163;48.878;18.040;2023-05-14T00:30:24;6.35;;;3.80;;
49296;SDS011;35163;48.878;18.040;2023-05-14T00:32:51;7.43;;;4.25;;
49296;SDS011;35163;48.878;18.040;2023-05-14T00:35:18;9.05;;;4.80;;
49296;SDS011;35163;48.878;18.040;2023-05-14T00:37:46;8.68;;;5.00;;
49296;SDS011;35163;48.878;18.040;2023-05-14T00:40:13;9.13;;;4.57;;
49296;SDS011;35163;48.878;18.040;2023-05-14T00:42:40;9.88;;;5.10;;
49296;SDS011;35163;48.878;18.040;2023-05-14T00:45:07;10.40;;;5.63;;
49296;SDS011;35163;48.878;18.040;2023-05-14T00:47:34;10.00;;;5.97;;
49296;SDS011;35163;48.878;18.040;2023-05-14T00:50:02;9.90;;;6.18;;
49296;SDS011;35163;48.878;18.040;2023-05-14T00:52:29;11.15;;;6.20;;
49296;SDS011;35163;48.878;18.040;2023-05-14T00:54:56;11.63;;;6.40;;
49296;SDS011;35163;48.878;18.040;2023-05-14T00:57:24;10.60;;;6.43;;
49296;SDS011;35163;48.878;18.040;2023-05-14T00:59:50;11.75;;;5.95;;
49296;SDS011;35163;48.878;18.040;2023-05-14T01:02:17;13.05;;;6.47;;
49296;SDS011;35163;48.878;18.040;2023-05-14T01:04:44;12.68;;;6.60;;
49296;SDS011;35163;48.878;18.040;2023-05-14T01:07:13;12.75;;;7.50;;
49296;SDS011;35163;48.878;18.040;2023-05-14T01:15:39;11.43;;;6.05;;
49296;SDS011;35163;48.878;18.040;2023-05-14T01:18:07;11.23;;;5.68;;
49296;SDS011;35163;48.878;18.040;2023-05-14T01:20:36;12.90;;;6.13;;
49296;SDS011;35163;48.878;18.040;2023-05-14T01:23:02;12.55;;;5.80;;
49296;SDS011;35163;48.878;18.040;2023-05-14T01:25:29;11.25;;;5.78;;
49296;SDS011;35163;48.878;18.040;2023-05-14T01:30:52;11.30;;;6.05;;
49296;SDS011;35163;48.878;18.040;2023-05-14T01:33:29;12.07;;;6.10;;
49296;SDS011;35163;48.878;18.040;2023-05-14T01:35:58;11.27;;;6.85;;
49296;SDS011;35163;48.878;18.040;2023-05-14T01:38:25;13.35;;;6.60;;
49296;SDS011;35163;48.878;18.040;2023-05-14T01:40:56;11.23;;;6.60;;
49296;SDS011;35163;48.878;18.040;2023-05-14T01:43:25;11.15;;;6.32;;
49296;SDS011;35163;48.878;18.040;2023-05-14T01:45:52;12.60;;;6.88;;
49296;SDS011;35163;48.878;18.040;2023-05-14T01:48:20;10.95;;;6.50;;
49296;SDS011;35163;48.878;18.040;2023-05-14T01:50:47;14.40;;;6.43;;
49296;SDS011;35163;48.878;18.040;2023-05-14T01:53:14;12.52;;;7.43;;
49296;SDS011;35163;48.878;18.040;2023-05-14T01:55:40;14.07;;;7.65;;
49296;SDS011;35163;48.878;18.040;2023-05-14T01:58:07;15.73;;;7.57;;
49296;SDS011;35163;48.878;18.040;2023-05-14T02:00:34;14.75;;;7.35;;
49296;SDS011;35163;48.878;18.040;2023-05-14T02:03:00;13.75;;;6.75;;
49296;SDS011;35163;48.878;18.040;2023-05-14T02:05:27;12.00;;;6.95;;
49296;SDS011;35163;48.878;18.040;2023-05-14T02:07:54;15.93;;;7.63;;
49296;SDS011;35163;48.878;18.040;2023-05-14T02:10:20;15.55;;;7.55;;
49296;SDS011;35163;48.878;18.040;2023-05-14T02:12:48;12.85;;;7.13;;
49296;SDS011;35163;48.878;18.040;2023-05-14T02:15:14;11.77;;;7.28;;
49296;SDS011;35163;48.878;18.040;2023-05-14T02:17:41;13.32;;;7.05;;
49296;SDS011;35163;48.878;18.040;2023-05-14T02:20:08;13.00;;;6.97;;
49296;SDS011;35163;48.878;18.040;2023-05-14T02:22:35;15.05;;;6.97;;
49296;SDS011;35163;48.878;18.040;2023-05-14T02:25:02;11.50;;;6.50;;
49296;SDS011;35163;48.878;18.040;2023-05-14T02:27:29;16.85;;;7.53;;
49296;SDS011;35163;48.878;18.040;2023-05-14T02:29:56;12.20;;;6.85;;
49296;SDS011;35163;48.878;18.040;2023-05-14T02:32:26;15.00;;;6.95;;
49296;SDS011;35163;48.878;18.040;2023-05-14T02:34:53;17.83;;;7.35;;
49296;SDS011;35163;48.878;18.040;2023-05-14T02:37:20;18.77;;;8.18;;
49296;SDS011;35163;48.878;18.040;2023-05-14T02:39:47;14.60;;;7.63;;
49296;SDS011;35163;48.878;18.040;2023-05-14T02:42:14;15.25;;;7.30;;
49296;SDS011;35163;48.878;18.040;2023-05-14T02:44:41;15.38;;;8.02;;
49296;SDS011;35163;48.878;18.040;2023-05-14T02:47:07;13.90;;;8.10;;
49296;SDS011;35163;48.878;18.040;2023-05-14T02:49:34;12.20;;;7.20;;
49296;SDS011;35163;48.878;18.040;2023-05-14T02:52:01;14.45;;;7.55;;
49296;SDS011;35163;48.878;18.040;2023-05-14T02:54:27;13.13;;;6.97;;
49296;SDS011;35163;48.878;18.040;2023-05-14T02:56:54;13.88;;;7.18;;
49296;SDS011;35163;48.878;18.040;2023-05-14T02:59:21;10.90;;;5.90;;
49296;SDS011;35163;48.878;18.040;2023-05-14T03:01:49;11.60;;;6.63;;
49296;SDS011;35163;48.878;18.040;2023-05-14T03:04:19;14.30;;;6.95;;
49296;SDS011;35163;48.878;18.040;2023-05-14T03:06:45;16.42;;;6.80;;
49296;SDS011;35163;48.878;18.040;2023-05-14T03:09:12;14.02;;;7.15;;
49296;SDS011;35163;48.878;18.040;2023-05-14T03:11:39;11.18;;;6.80;;
49296;SDS011;35163;48.878;18.040;2023-05-14T03:14:06;13.98;;;7.40;;
49296;SDS011;35163;48.878;18.040;2023-05-14T03:16:32;13.00;;;6.18;;
49296;SDS011;35163;48.878;18.040;2023-05-14T03:18:59;12.55;;;6.13;;
49296;SDS011;35163;48.878;18.040;2023-05-14T03:21:26;10.70;;;6.18;;
49296;SDS011;35163;48.878;18.040;2023-05-14T03:23:52;12.57;;;5.72;;
49296;SDS011;35163;48.878;18.040;2023-05-14T03:26:19;11.25;;;5.85;;
49296;SDS011;35163;48.878;18.040;2023-05-14T03:28:49;11.10;;;5.85;;
49296;SDS011;35163;48.878;18.040;2023-05-14T03:31:16;10.57;;;5.47;;
49296;SDS011;35163;48.878;18.040;2023-05-14T03:33:42;9.32;;;5.43;;
49296;SDS011;35163;48.878;18.040;2023-05-14T03:36:09;12.05;;;5.95;;
49296;SDS011;35163;48.878;18.040;2023-05-14T03:38:36;12.63;;;5.82;;
49296;SDS011;35163;48.878;18.040;2023-05-14T03:41:03;10.60;;;5.78;;
49296;SDS011;35163;48.878;18.040;2023-05-14T03:43:29;11.05;;;5.72;;
49296;SDS011;35163;48.878;18.040;2023-05-14T03:45:56;12.00;;;6.45;;
49296;SDS011;35163;48.878;18.040;2023-05-14T03:48:23;14.02;;;6.43;;
49296;SDS011;35163;48.878;18.040;2023-05-14T03:50:50;10.63;;;5.93;;
49296;SDS011;35163;48.878;18.040;2023-05-14T03:53:19;10.95;;;6.20;;
49296;SDS011;35163;48.878;18.040;2023-05-14T03:55:46;14.43;;;5.85;;
49296;SDS011;35163;48.878;18.040;2023-05-14T03:58:12;12.93;;;5.50;;
49296;SDS011;35163;48.878;18.040;2023-05-14T04:00:40;12.52;;;6.28;;
49296;SDS011;35163;48.878;18.040;2023-05-14T04:03:07;11.25;;;5.28;;
49296;SDS011;35163;48.878;18.040;2023-05-14T04:05:34;10.07;;;5.25;;
49296;SDS011;35163;48.878;18.040;2023-05-14T04:08:01;9.45;;;4.72;;
49296;SDS011;35163;48.878;18.040;2023-05-14T04:10:27;10.63;;;5.18;;
49296;SDS011;35163;48.878;18.040;2023-05-14T04:12:55;9.48;;;5.43;;
49296;SDS011;35163;48.878;18.040;2023-05-14T04:15:21;12.10;;;6.28;;
49296;SDS011;35163;48.878;18.040;2023-05-14T04:17:48;11.38;;;6.30;;
49296;SDS011;35163;48.878;18.040;2023-05-14T04:20:18;11.27;;;5.93;;
49296;SDS011;35163;48.878;18.040;2023-05-14T04:22:44;10.98;;;5.93;;
49296;SDS011;35163;48.878;18.040;2023-05-14T04:25:11;12.27;;;5.97;;
49296;SDS011;35163;48.878;18.040;2023-05-14T04:27:38;13.73;;;5.97;;
49296;SDS011;35163;48.878;18.040;2023-05-14T04:30:06;9.75;;;5.78;;
49296;SDS011;35163;48.878;18.040;2023-05-14T04:32:33;12.65;;;5.45;;
49296;SDS011;35163;48.878;18.040;2023-05-14T04:35:01;10.32;;;5.40;;
49296;SDS011;35163;48.878;18.040;2023-05-14T04:37:27;10.10;;;4.75;;
49296;SDS011;35163;48.878;18.040;2023-05-14T04:39:54;8.95;;;4.90;;
49296;SDS011;35163;48.878;18.040;2023-05-14T04:42:21;10.70;;;5.15;;
49296;SDS011;35163;48.878;18.040;2023-05-14T04:44:47;10.27;;;4.57;;
49296;SDS011;35163;48.878;18.040;2023-05-14T04:47:14;10.52;;;4.82;;
49296;SDS011;35163;48.878;18.040;2023-05-14T04:49:41;11.93;;;5.45;;
49296;SDS011;35163;48.878;18.040;2023-05-14T04:52:08;10.57;;;5.88;;
49296;SDS011;35163;48.878;18.040;2023-05-14T04:54:35;8.73;;;4.90;;
49296;SDS011;35163;48.878;18.040;2023-05-14T04:57:02;8.77;;;5.32;;
49296;SDS011;35163;48.878;18.040;2023-05-14T04:59:29;9.02;;;5.22;;
49296;SDS011;35163;48.878;18.040;2023-05-14T05:01:56;9.15;;;5.40;;
49296;SDS011;35163;48.878;18.040;2023-05-14T05:04:24;9.27;;;5.00;;
49296;SDS011;35163;48.878;18.040;2023-05-14T05:06:51;9.48;;;5.00;;
49296;SDS011;35163;48.878;18.040;2023-05-14T05:09:21;11.20;;;5.20;;
49296;SDS011;35163;48.878;18.040;2023-05-14T05:11:48;11.13;;;5.10;;
49296;SDS011;35163;48.878;18.040;2023-05-14T05:14:15;8.82;;;5.10;;
49296;SDS011;35163;48.878;18.040;2023-05-14T05:16:44;9.85;;;5.13;;
49296;SDS011;35163;48.878;18.040;2023-05-14T05:19:11;10.77;;;5.65;;
49296;SDS011;35163;48.878;18.040;2023-05-14T05:21:38;9.00;;;4.95;;
49296;SDS011;35163;48.878;18.040;2023-05-14T05:24:07;8.73;;;5.05;;
49296;SDS011;35163;48.878;18.040;2023-05-14T05:26:34;10.00;;;5.40;;
49296;SDS011;35163;48.878;18.040;2023-05-14T05:29:04;11.85;;;5.40;;
49296;SDS011;35163;48.878;18.040;2023-05-14T05:31:31;9.52;;;5.32;;
49296;SDS011;35163;48.878;18.040;2023-05-14T05:33:58;12.27;;;5.32;;
49296;SDS011;35163;48.878;18.040;2023-05-14T05:36:25;9.55;;;5.25;;
49296;SDS011;35163;48.878;18.040;2023-05-14T05:38:52;14.55;;;5.78;;
49296;SDS011;35163;48.878;18.040;2023-05-14T05:41:19;9.77;;;5.28;;
49296;SDS011;35163;48.878;18.040;2023-05-14T05:43:45;10.25;;;5.32;;
49296;SDS011;35163;48.878;18.040;2023-05-14T05:46:12;11.65;;;5.03;;
49296;SDS011;35163;48.878;18.040;2023-05-14T05:48:40;10.93;;;5.70;;
49296;SDS011;35163;48.878;18.040;2023-05-14T05:51:07;11.52;;;5.43;;
49296;SDS011;35163;48.878;18.040;2023-05-14T05:53:33;12.32;;;5.70;;
49296;SDS011;35163;48.878;18.040;2023-05-14T05:56:00;11.63;;;6.15;;
49296;SDS011;35163;48.878;18.040;2023-05-14T05:58:27;12.48;;;5.93;;
49296;SDS011;35163;48.878;18.040;2023-05-14T06:00:53;10.63;;;6.03;;
49296;SDS011;35163;48.878;18.040;2023-05-14T06:03:22;10.70;;;6.03;;
49296;SDS011;35163;48.878;18.040;2023-05-14T06:05:49;12.52;;;6.38;;
49296;SDS011;35163;48.878;18.040;2023-05-14T06:08:17;11.63;;;6.05;;
49296;SDS011;35163;48.878;18.040;2023-05-14T06:10:44;10.80;;;6.10;;
49296;SDS011;35163;48.878;18.040;2023-05-14T06:13:12;9.40;;;5.68;;
49296;SDS011;35163;48.878;18.040;2023-05-14T06:15:39;10.20;;;5.72;;
49296;SDS011;35163;48.878;18.040;2023-05-14T06:18:06;13.93;;;6.07;;
49296;SDS011;35163;48.878;18.040;2023-05-14T06:20:34;11.63;;;6.32;;
49296;SDS011;35163;48.878;18.040;2023-05-14T06:23:01;12.55;;;6.10;;
49296;SDS011;35163;48.878;18.040;2023-05-14T06:25:27;12.80;;;6.55;;
49296;SDS011;35163;48.878;18.040;2023-05-14T06:27:54;11.68;;;6.05;;
49296;SDS011;35163;48.878;18.040;2023-05-14T06:30:21;11.80;;;6.32;;
49296;SDS011;35163;48.878;18.040;2023-05-14T06:32:48;12.57;;;5.43;;
49296;SDS011;35163;48.878;18.040;2023-05-14T06:35:17;12.55;;;6.65;;
49296;SDS011;35163;48.878;18.040;2023-05-14T06:37:44;10.20;;;5.78;;
49296;SDS011;35163;48.878;18.040;2023-05-14T06:40:11;12.20;;;6.13;;
49296;SDS011;35163;48.878;18.040;2023-05-14T06:42:40;14.82;;;5.80;;
49296;SDS011;35163;48.878;18.040;2023-05-14T06:45:07;10.98;;;5.57;;
49296;SDS011;35163;48.878;18.040;2023-05-14T06:47:34;10.50;;;5.53;;
49296;SDS011;35163;48.878;18.040;2023-05-14T06:50:01;10.00;;;5.28;;
49296;SDS011;35163;48.878;18.040;2023-05-14T06:52:28;11.68;;;5.43;;
49296;SDS011;35163;48.878;18.040;2023-05-14T06:54:55;11.38;;;5.38;;
49296;SDS011;35163;48.878;18.040;2023-05-14T06:57:21;10.30;;;5.32;;
49296;SDS011;35163;48.878;18.040;2023-05-14T06:59:48;9.52;;;4.70;;
49296;SDS011;35163;48.878;18.040;2023-05-14T07:02:14;10.85;;;5.20;;
49296;SDS011;35163;48.878;18.040;2023-05-14T07:04:41;10.90;;;5.53;;
49296;SDS011;35163;48.878;18.040;2023-05-14T07:07:08;12.57;;;5.70;;
49296;SDS011;35163;48.878;18.040;2023-05-14T07:09:38;11.93;;;6.03;;
49296;SDS011;35163;48.878;18.040;2023-05-14T07:12:05;12.93;;;6.30;;
49296;SDS011;35163;48.878;18.040;2023-05-14T07:14:32;11.38;;;5.50;;
49296;SDS011;35163;48.878;18.040;2023-05-14T07:16:59;8.77;;;5.03;;
49296;SDS011;35163;48.878;18.040;2023-05-14T07:19:28;9.90;;;5.72;;
49296;SDS011;35163;48.878;18.040;2023-05-14T07:21:55;13.65;;;6.20;;
49296;SDS011;35163;48.878;18.040;2023-05-14T07:24:22;10.27;;;6.28;;
49296;SDS011;35163;48.878;18.040;2023-05-14T07:26:49;11.18;;;5.50;;
49296;SDS011;35163;48.878;18.040;2023-05-14T07:29:16;9.43;;;6.07;;
49296;SDS011;35163;48.878;18.040;2023-05-14T07:31:45;12.60;;;6.65;;
49296;SDS011;35163;48.878;18.040;2023-05-14T07:34:13;11.75;;;6.45;;
49296;SDS011;35163;48.878;18.040;2023-05-14T07:36:40;13.90;;;6.32;;
49296;SDS011;35163;48.878;18.040;2023-05-14T07:39:07;10.90;;;6.43;;
49296;SDS011;35163;48.878;18.040;2023-05-14T07:41:34;14.73;;;8.13;;
49296;SDS011;35163;48.878;18.040;2023-05-14T07:44:00;16.50;;;8.45;;
49296;SDS011;35163;48.878;18.040;2023-05-14T07:46:27;16.33;;;8.15;;
49296;SDS011;35163;48.878;18.040;2023-05-14T07:48:54;14.70;;;7.35;;
49296;SDS011;35163;48.878;18.040;2023-05-14T07:51:21;10.45;;;6.35;;
49296;SDS011;35163;48.878;18.040;2023-05-14T07:53:48;13.88;;;6.13;;
49296;SDS011;35163;48.878;18.040;2023-05-14T07:56:14;13.35;;;6.18;;
49296;SDS011;35163;48.878;18.040;2023-05-14T07:58:41;15.43;;;5.55;;
49296;SDS011;35163;48.878;18.040;2023-05-14T08:01:10;15.55;;;6.45;;
49296;SDS011;35163;48.878;18.040;2023-05-14T08:03:38;15.02;;;6.13;;
49296;SDS011;35163;48.878;18.040;2023-05-14T08:06:05;11.93;;;5.93;;
49296;SDS011;35163;48.878;18.040;2023-05-14T08:08:31;11.73;;;6.63;;
49296;SDS011;35163;48.878;18.040;2023-05-14T08:10:58;12.10;;;6.45;;
49296;SDS011;35163;48.878;18.040;2023-05-14T08:13:25;11.07;;;6.35;;
49296;SDS011;35163;48.878;18.040;2023-05-14T08:15:51;12.85;;;7.50;;
49296;SDS011;35163;48.878;18.040;2023-05-14T08:18:18;12.32;;;7.22;;
49296;SDS011;35163;48.878;18.040;2023-05-14T08:20:45;13.27;;;7.65;;
49296;SDS011;35163;48.878;18.040;2023-05-14T08:23:12;11.20;;;6.07;;
49296;SDS011;35163;48.878;18.040;2023-05-14T08:25:38;12.07;;;7.05;;
49296;SDS011;35163;48.878;18.040;2023-05-14T08:28:05;11.10;;;6.53;;
49296;SDS011;35163;48.878;18.040;2023-05-14T08:30:32;11.70;;;6.55;;
49296;SDS011;35163;48.878;18.040;2023-05-14T08:32:59;13.13;;;6.80;;
49296;SDS011;35163;48.878;18.040;2023-05-14T08:35:28;11.27;;;6.32;;
49296;SDS011;35163;48.878;18.040;2023-05-14T08:37:55;12.32;;;7.15;;
49296;SDS011;35163;48.878;18.040;2023-05-14T08:40:22;16.85;;;6.80;;
49296;SDS011;35163;48.878;18.040;2023-05-14T08:42:50;13.25;;;7.03;;
49296;SDS011;35163;48.878;18.040;2023-05-14T08:45:18;12.18;;;6.85;;
49296;SDS011;35163;48.878;18.040;2023-05-14T08:47:49;12.02;;;7.30;;
49296;SDS011;35163;48.878;18.040;2023-05-14T08:50:16;14.10;;;6.95;;
49296;SDS011;35163;48.878;18.040;2023-05-14T08:52:48;12.77;;;6.88;;
49296;SDS011;35163;48.878;18.040;2023-05-14T08:55:14;12.50;;;6.60;;
49296;SDS011;35163;48.878;18.040;2023-05-14T08:57:41;10.27;;;6.63;;
49296;SDS011;35163;48.878;18.040;2023-05-14T09:00:08;11.48;;;6.22;;
49296;SDS011;35163;48.878;18.040;2023-05-14T09:02:38;14.43;;;7.20;;
49296;SDS011;35163;48.878;18.040;2023-05-14T09:05:06;12.80;;;6.18;;
49296;SDS011;35163;48.878;18.040;2023-05-14T09:07:34;12.55;;;7.13;;
49296;SDS011;35163;48.878;18.040;2023-05-14T09:10:01;11.95;;;6.40;;
49296;SDS011;35163;48.878;18.040;2023-05-14T09:12:29;13.25;;;6.90;;
49296;SDS011;35163;48.878;18.040;2023-05-14T09:14:56;12.93;;;7.32;;
49296;SDS011;35163;48.878;18.040;2023-05-14T09:17:24;13.57;;;7.68;;
49296;SDS011;35163;48.878;18.040;2023-05-14T09:19:52;16.83;;;8.82;;
49296;SDS011;35163;48.878;18.040;2023-05-14T09:22:20;17.80;;;8.43;;
49296;SDS011;35163;48.878;18.040;2023-05-14T09:25:00;14.15;;;7.93;;
49296;SDS011;35163;48.878;18.040;2023-05-14T09:27:32;13.80;;;7.63;;
49296;SDS011;35163;48.878;18.040;2023-05-14T09:30:09;11.35;;;7.05;;
49296;SDS011;35163;48.878;18.040;2023-05-14T09:32:38;13.95;;;7.53;;
49296;SDS011;35163;48.878;18.040;2023-05-14T09:35:12;18.00;;;10.50;;
49296;SDS011;35163;48.878;18.040;2023-05-14T09:37:43;13.60;;;8.02;;
49296;SDS011;35163;48.878;18.040;2023-05-14T09:40:11;14.10;;;6.82;;
49296;SDS011;35163;48.878;18.040;2023-05-14T09:42:39;11.43;;;6.93;;
49296;SDS011;35163;48.878;18.040;2023-05-14T09:45:07;14.02;;;6.78;;
49296;SDS011;35163;48.878;18.040;2023-05-14T09:47:35;13.05;;;6.88;;
49296;SDS011;35163;48.878;18.040;2023-05-14T09:50:03;12.20;;;6.05;;
49296;SDS011;35163;48.878;18.040;2023-05-14T09:52:30;12.45;;;6.35;;
49296;SDS011;35163;48.878;18.040;2023-05-14T09:54:57;12.55;;;7.03;;
49296;SDS011;35163;48.878;18.040;2023-05-14T09:57:23;13.20;;;6.75;;
49296;SDS011;35163;48.878;18.040;2023-05-14T09:59:50;14.07;;;6.82;;
49296;SDS011;35163;48.878;18.040;2023-05-14T10:02:28;12.73;;;7.55;;
49296;SDS011;35163;48.878;18.040;2023-05-14T10:07:32;12.10;;;7.25;;
49296;SDS011;35163;48.878;18.040;2023-05-14T10:10:05;12.43;;;7.32;;
49296;SDS011;35163;48.878;18.040;2023-05-14T10:12:37;12.50;;;7.18;;
49296;SDS011;35163;48.878;18.040;2023-05-14T10:15:11;15.07;;;7.85;;
49296;SDS011;35163;48.878;18.040;2023-05-14T10:17:47;16.90;;;7.63;;
49296;SDS011;35163;48.878;18.040;2023-05-14T10:20:20;14.65;;;7.63;;
49296;SDS011;35163;48.878;18.040;2023-05-14T10:22:49;11.98;;;7.65;;
49296;SDS011;35163;48.878;18.040;2023-05-14T10:25:16;12.77;;;6.75;;
49296;SDS011;35163;48.878;18.040;2023-05-14T10:27:43;11.73;;;6.78;;
49296;SDS011;35163;48.878;18.040;2023-05-14T10:30:10;11.63;;;6.88;;
49296;SDS011;35163;48.878;18.040;2023-05-14T10:32:38;12.45;;;6.90;;
49296;SDS011;35163;48.878;18.040;2023-05-14T10:35:17;14.57;;;7.65;;
49296;SDS011;35163;48.878;18.040;2023-05-14T10:37:50;15.10;;;8.73;;
49296;SDS011;35163;48.878;18.040;2023-05-14T10:40:17;14.52;;;9.07;;
49296;SDS011;35163;48.878;18.040;2023-05-14T10:42:44;14.85;;;7.90;;
49296;SDS011;35163;48.878;18.040;2023-05-14T10:45:12;14.80;;;8.23;;
49296;SDS011;35163;48.878;18.040;2023-05-14T10:47:41;13.73;;;7.85;;
49296;SDS011;35163;48.878;18.040;2023-05-14T10:50:10;14.57;;;6.10;;
49296;SDS011;35163;48.878;18.040;2023-05-14T10:52:39;11.02;;;6.40;;
49296;SDS011;35163;48.878;18.040;2023-05-14T10:55:08;9.75;;;5.95;;
49296;SDS011;35163;48.878;18.040;2023-05-14T10:57:38;13.02;;;6.55;;
49296;SDS011;35163;48.878;18.040;2023-05-14T11:00:05;10.75;;;6.10;;
49296;SDS011;35163;48.878;18.040;2023-05-14T11:02:35;11.30;;;7.00;;
49296;SDS011;35163;48.878;18.040;2023-05-14T11:05:13;11.88;;;6.35;;
49296;SDS011;35163;48.878;18.040;2023-05-14T11:10:15;13.10;;;6.60;;
49296;SDS011;35163;48.878;18.040;2023-05-14T11:12:44;11.07;;;6.60;;
49296;SDS011;35163;48.878;18.040;2023-05-14T11:15:12;12.45;;;5.90;;
49296;SDS011;35163;48.878;18.040;2023-05-14T11:17:41;12.13;;;5.63;;
49296;SDS011;35163;48.878;18.040;2023-05-14T11:20:11;9.90;;;5.30;;
49296;SDS011;35163;48.878;18.040;2023-05-14T11:22:40;11.82;;;5.63;;
49296;SDS011;35163;48.878;18.040;2023-05-14T11:25:11;11.65;;;6.15;;
49296;SDS011;35163;48.878;18.040;2023-05-14T11:27:41;10.95;;;5.88;;
49296;SDS011;35163;48.878;18.040;2023-05-14T11:32:46;9.93;;;5.35;;
49296;SDS011;35163;48.878;18.040;2023-05-14T11:35:14;17.83;;;10.55;;
49296;SDS011;35163;48.878;18.040;2023-05-14T11:37:42;12.15;;;6.63;;
49296;SDS011;35163;48.878;18.040;2023-05-14T11:40:15;9.57;;;5.43;;
49296;SDS011;35163;48.878;18.040;2023-05-14T11:42:42;9.68;;;5.05;;
49296;SDS011;35163;48.878;18.040;2023-05-14T11:45:09;10.13;;;4.57;;
49296;SDS011;35163;48.878;18.040;2023-05-14T11:47:39;9.05;;;4.30;;
49296;SDS011;35163;48.878;18.040;2023-05-14T11:50:07;9.23;;;5.07;;
49296;SDS011;35163;48.878;18.040;2023-05-14T11:52:39;13.65;;;6.43;;
49296;SDS011;35163;48.878;18.040;2023-05-14T11:55:10;11.38;;;5.50;;
49296;SDS011;35163;48.878;18.040;2023-05-14T11:57:38;12.85;;;5.10;;
49296;SDS011;35163;48.878;18.040;2023-05-14T12:00:09;11.05;;;5.47;;
49296;SDS011;35163;48.878;18.040;2023-05-14T12:02:42;7.72;;;4.03;;
49296;SDS011;35163;48.878;18.040;2023-05-14T12:05:11;9.30;;;4.82;;
49296;SDS011;35163;48.878;18.040;2023-05-14T12:07:38;12.25;;;4.75;;
49296;SDS011;35163;48.878;18.040;2023-05-14T12:10:05;7.85;;;4.60;;
49296;SDS011;35163;48.878;18.040;2023-05-14T12:12:33;8.82;;;4.93;;
49296;SDS011;35163;48.878;18.040;2023-05-14T12:15:09;11.40;;;6.13;;
49296;SDS011;35163;48.878;18.040;2023-05-14T12:17:38;10.60;;;4.90;;
49296;SDS011;35163;48.878;18.040;2023-05-14T12:20:07;11.85;;;4.88;;
49296;SDS011;35163;48.878;18.040;2023-05-14T12:22:37;8.43;;;4.35;;
49296;SDS011;35163;48.878;18.040;2023-05-14T12:25:11;12.00;;;4.97;;
49296;SDS011;35163;48.878;18.040;2023-05-14T12:27:39;11.38;;;5.75;;
49296;SDS011;35163;48.878;18.040;2023-05-14T12:30:10;8.68;;;4.93;;
49296;SDS011;35163;48.878;18.040;2023-05-14T12:32:46;13.27;;;6.38;;
49296;SDS011;35163;48.878;18.040;2023-05-14T12:35:19;9.93;;;5.13;;
49296;SDS011;35163;48.878;18.040;2023-05-14T12:37:48;9.48;;;5.45;;
49296;SDS011;35163;48.878;18.040;2023-05-14T12:40:17;12.50;;;6.18;;
49296;SDS011;35163;48.878;18.040;2023-05-14T12:42:44;9.80;;;5.78;;
49296;SDS011;35163;48.878;18.040;2023-05-14T12:45:11;11.57;;;6.13;;
49296;SDS011;35163;48.878;18.040;2023-05-14T12:47:37;11.30;;;5.80;;
49296;SDS011;35163;48.878;18.040;2023-05-14T12:50:04;13.73;;;5.72;;
49296;SDS011;35163;48.878;18.040;2023-05-14T12:52:31;9.75;;;5.18;;
49296;SDS011;35163;48.878;18.040;2023-05-14T12:55:07;13.75;;;5.45;;
49296;SDS011;35163;48.878;18.040;2023-05-14T12:57:35;13.73;;;6.05;;
49296;SDS011;35163;48.878;18.040;2023-05-14T13:00:03;18.15;;;7.50;;
49296;SDS011;35163;48.878;18.040;2023-05-14T13:02:37;12.68;;;5.38;;
49296;SDS011;35163;48.878;18.040;2023-05-14T13:05:08;9.85;;;5.45;;
49296;SDS011;35163;48.878;18.040;2023-05-14T13:07:36;10.52;;;5.78;;
49296;SDS011;35163;48.878;18.040;2023-05-14T13:10:03;10.25;;;5.78;;
49296;SDS011;35163;48.878;18.040;2023-05-14T13:12:31;13.02;;;6.30;;
49296;SDS011;35163;48.878;18.040;2023-05-14T13:14:58;12.15;;;6.07;;
49296;SDS011;35163;48.878;18.040;2023-05-14T13:17:24;14.88;;;9.27;;
49296;SDS011;35163;48.878;18.040;2023-05-14T13:19:51;14.88;;;7.88;;
49296;SDS011;35163;48.878;18.040;2023-05-14T13:22:18;11.52;;;6.55;;
49296;SDS011;35163;48.878;18.040;2023-05-14T13:24:44;12.93;;;6.07;;
49296;SDS011;35163;48.878;18.040;2023-05-14T13:27:11;10.82;;;5.90;;
49296;SDS011;35163;48.878;18.040;2023-05-14T13:29:38;10.18;;;5.47;;
49296;SDS011;35163;48.878;18.040;2023-05-14T13:32:08;8.68;;;5.00;;
49296;SDS011;35163;48.878;18.040;2023-05-14T13:34:34;10.60;;;5.82;;
49296;SDS011;35163;48.878;18.040;2023-05-14T13:37:01;9.95;;;6.10;;
49296;SDS011;35163;48.878;18.040;2023-05-14T13:39:29;10.23;;;5.82;;
49296;SDS011;35163;48.878;18.040;2023-05-14T13:41:55;9.55;;;5.72;;
49296;SDS011;35163;48.878;18.040;2023-05-14T13:44:22;10.32;;;6.20;;
49296;SDS011;35163;48.878;18.040;2023-05-14T13:46:49;11.45;;;5.68;;
49296;SDS011;35163;48.878;18.040;2023-05-14T13:49:16;10.18;;;5.78;;
49296;SDS011;35163;48.878;18.040;2023-05-14T13:51:43;9.55;;;5.50;;
49296;SDS011;35163;48.878;18.040;2023-05-14T13:54:10;13.07;;;6.45;;
49296;SDS011;35163;48.878;18.040;2023-05-14T13:56:41;10.48;;;6.07;;
49296;SDS011;35163;48.878;18.040;2023-05-14T13:59:07;13.40;;;6.07;;
49296;SDS011;35163;48.878;18.040;2023-05-14T14:01:34;9.95;;;5.70;;
49296;SDS011;35163;48.878;18.040;2023-05-14T14:04:01;11.30;;;5.95;;
49296;SDS011;35163;48.878;18.040;2023-05-14T14:06:29;10.68;;;5.97;;
49296;SDS011;35163;48.878;18.040;2023-05-14T14:08:59;10.15;;;6.10;;
49296;SDS011;35163;48.878;18.040;2023-05-14T14:11:26;11.02;;;6.20;;
49296;SDS011;35163;48.878;18.040;2023-05-14T14:13:53;15.23;;;6.07;;
49296;SDS011;35163;48.878;18.040;2023-05-14T14:16:19;13.35;;;7.47;;
49296;SDS011;35163;48.878;18.040;2023-05-14T14:18:46;10.20;;;6.15;;
49296;SDS011;35163;48.878;18.040;2023-05-14T14:21:13;14.45;;;6.25;;
49296;SDS011;35163;48.878;18.040;2023-05-14T14:23:46;11.15;;;6.22;;
49296;SDS011;35163;48.878;18.040;2023-05-14T14:26:13;11.50;;;6.57;;
49296;SDS011;35163;48.878;18.040;2023-05-14T14:28:42;12.20;;;6.13;;
49296;SDS011;35163;48.878;18.040;2023-05-14T14:31:09;14.98;;;6.20;;
49296;SDS011;35163;48.878;18.040;2023-05-14T14:33:36;10.45;;;5.97;;
49296;SDS011;35163;48.878;18.040;2023-05-14T14:36:02;11.85;;;6.00;;
49296;SDS011;35163;48.878;18.040;2023-05-14T14:38:29;10.93;;;6.40;;
49296;SDS011;35163;48.878;18.040;2023-05-14T14:40:59;9.98;;;5.97;;
49296;SDS011;35163;48.878;18.040;2023-05-14T14:43:28;17.67;;;8.32;;